logo
Rechercher aéroport 
image banner adimage banner adimage banner ad
image banner ad

OPLA - Lahore / Aiiap International

Situé à Lahore, Pakistan

ICAO - OPLA, IATA - LHE

Données fournies par Airmate  

Information générale

Coordonnées: N31°31'18" E74°24'16"
Élévation : 712 feet MSL.
 
Évalué:
Voir évaluations:
[VIEW]
Voir autres Aéroports à Punjab

Données opérationnelles

Special qualification required
Heure actuelle UTC:
Heure actuelle locale:
Météo
METAR: OPLA 282025Z 00000KT 6000 NSC 33/14 Q0993 NOSIG RMK QFE967 A29.32
TAF: TAF OPLA 281700Z 2818/2924 15008KT 4000 HZ NSC TX45/2910Z TN28/2900Z TEMPO 2900/2903 34015G30KT 2000 DRDU FEW100 FM 29/0400 35012G25KT 6000 NSC TEMPO 2912/2916 34025G50KT 0800 DSTSRA FEW030CB SCT040 BKN100 FM 29/1800 03008KT 4000 HZ NSC-
Voir NOTAMs / SUP AIP / TFR affectant cet aéroport [VIEW]
Fréquences de communication: [VIEW]

Pistes:

Identifiant RWYQFULongueur (ft)Largeur (ft)SurfaceLDA (ft)
18R181°8999151ASP
36L8999151ASP
18L181°11024148CON
36R11024148CON

Coordonnées de l'aéroport

Adresse: Lahore Pakistan

Vue satellite de OPLA